Change the Weather History Date:

Friday, April 25, 2014

  Actual Average Record
Temperature  
Mean Temperature 46 °F -  
Max Temperature 62 °F 65 °F 90 °F (1962)
Min Temperature 30 °F 40 °F 28 °F (1958)
Degree Days  
Heating Degree Days 19    
Moisture  
Dew Point 38 °F    
Average Humidity 72    
Maximum Humidity 100    
Minimum Humidity 37    
Precipitation  
Precipitation 0.00 in - - ()
Sea Level Pressure  
Sea Level Pressure 29.78 in    
Wind  
Wind Speed 6 mph (WNW)    
Max Wind Speed 18 mph    
Max Gust Speed 25 mph    
Visibility 8 miles    
Events Fog    
Averages and records for this station are not official NWS values.
T = Trace of Precipitation, MM = Missing Value Source: NWS Daily Summary

Daily Weather History Graph

Daily Weather History Graph

Search for Another Location

Airport or City:

Trip Planner

Search our weather history database for the weather conditions in past years. The results will help you decide how hot, cold, wet, or windy it might be!

Date:

Astronomy

Apr. 25, 2014 Rise Set
Actual Time 6:12 AM CDT 8:10 PM CDT
Civil Twilight 5:40 AM CDT 8:41 PM CDT
Nautical Twilight 5:02 AM CDT 9:20 PM CDT
Astronomical Twilight 4:20 AM CDT 10:02 PM CDT
Moon 4:10 AM CDT (4/25) 4:24 PM CDT (4/25)
Length of Visible Light 15h 01m
Length of Day
13h 58m
Waning Crescent, 15% of the Moon is Illuminated
Apr 25
Waning Crescent
Apr 29
New
May 6
First Quarter
May 14
Full
May 21
Last Quarter

Hourly Weather History & Observations

Time (CDT) Temp. Windchill Dew Point Humidity Pressure Visibility Wind Dir Wind Speed Gust Speed Precip Events Conditions
12:16 AM 33.8 °F - 32.0 °F 93% 29.73 in 3.0 mi Calm Calm - N/A   Clear
12:36 AM 33.8 °F 30.8 °F 33.8 °F 100% 29.73 in 2.0 mi SSW 3.5 mph - N/A   Clear
12:56 AM 35.6 °F 32.8 °F 35.6 °F 100% 29.73 in 5.0 mi SW 3.5 mph - N/A   Clear
1:16 AM 35.6 °F - 35.6 °F 100% 29.73 in 4.0 mi Calm Calm - N/A   Clear
1:36 AM 32.0 °F - 30.2 °F 93% 29.72 in 1.8 mi Calm Calm - N/A   Mist
1:56 AM 35.6 °F - 35.6 °F 100% 29.72 in 2.5 mi Calm Calm - N/A   Clear
2:15 AM 33.8 °F 30.8 °F 33.8 °F 100% 29.72 in 2.0 mi South 3.5 mph - N/A   Clear
2:36 AM 30.2 °F - 30.2 °F 100% 29.71 in 0.2 mi Calm Calm - N/A Fog Light Freezing Fog
2:56 AM 30.2 °F - 30.2 °F 100% 29.71 in 0.5 mi Calm Calm - N/A Fog Light Freezing Fog
3:16 AM 33.8 °F - 33.8 °F 100% 29.72 in 1.5 mi Calm Calm - N/A   Mist
3:36 AM 35.6 °F - 35.6 °F 100% 29.73 in 3.0 mi Calm Calm - N/A   Clear
3:56 AM 35.6 °F - 35.6 °F 100% 29.73 in 5.0 mi Calm Calm - N/A   Clear
4:16 AM 33.8 °F - 33.8 °F 100% 29.72 in 1.8 mi Calm Calm - N/A   Mist
4:36 AM 35.6 °F - 35.6 °F 100% 29.72 in 1.2 mi Calm Calm - N/A   Mist
4:55 AM 35.6 °F - 35.6 °F 100% 29.72 in 5.0 mi Calm Calm - N/A   Clear
5:16 AM 35.6 °F 31.7 °F 35.6 °F 100% 29.72 in 5.0 mi SW 4.6 mph - N/A   Clear
5:36 AM 37.4 °F 33.8 °F 35.6 °F 93% 29.72 in 4.0 mi SW 4.6 mph - N/A   Clear
5:56 AM 35.6 °F 32.8 °F 35.6 °F 100% 29.73 in 2.5 mi SW 3.5 mph - N/A   Clear
6:16 AM 35.6 °F 32.8 °F 35.6 °F 100% 29.73 in 4.0 mi SW 3.5 mph - N/A   Clear
6:36 AM 35.6 °F - 35.6 °F 100% 29.74 in 2.5 mi Calm Calm - N/A   Clear
6:56 AM 37.4 °F 34.9 °F 37.4 °F 100% 29.74 in 7.0 mi WSW 3.5 mph - N/A   Clear
7:16 AM 39.2 °F 34.2 °F 39.2 °F 100% 29.75 in 10.0 mi West 6.9 mph - N/A   Clear
7:36 AM 41.0 °F 34.3 °F 41.0 °F 100% 29.75 in 10.0 mi West 11.5 mph - N/A   Clear
7:56 AM 42.8 °F 36.6 °F 42.8 °F 100% 29.76 in 10.0 mi WNW 11.5 mph - N/A   Clear
8:16 AM 44.6 °F 38.8 °F 41.0 °F 87% 29.76 in 10.0 mi WNW 11.5 mph - N/A   Clear
8:36 AM 46.4 °F 40.7 °F 41.0 °F 81% 29.76 in 10.0 mi WNW 12.7 mph - N/A   Clear
8:56 AM 48.2 °F - 42.8 °F 82% 29.77 in 10.0 mi WNW 10.4 mph - N/A   Clear
9:16 AM 48.2 °F - 42.8 °F 82% 29.77 in 10.0 mi WNW 10.4 mph - N/A   Clear
9:36 AM 50.0 °F - 42.8 °F 76% 29.77 in 10.0 mi WNW 13.8 mph 17.3 mph N/A   Clear
9:56 AM 51.8 °F - 41.0 °F 67% 29.78 in 10.0 mi WNW 13.8 mph 20.7 mph N/A   Clear
10:16 AM 53.6 °F - 42.8 °F 67% 29.78 in 10.0 mi NW 15.0 mph - N/A   Clear
10:35 AM 53.6 °F - 42.8 °F 67% 29.79 in 10.0 mi West 15.0 mph 20.7 mph N/A   Clear
10:56 AM 53.6 °F - 42.8 °F 67% 29.79 in 10.0 mi WNW 13.8 mph - N/A   Clear
11:16 AM 55.4 °F - 42.8 °F 63% 29.80 in 10.0 mi WNW 12.7 mph - N/A   Clear
11:36 AM 55.4 °F - 42.8 °F 63% 29.79 in 10.0 mi NW 11.5 mph - N/A   Scattered Clouds
11:56 AM 55.4 °F - 42.8 °F 63% 29.80 in 10.0 mi NW 12.7 mph 16.1 mph N/A   Scattered Clouds
12:15 PM 55.4 °F - 41.0 °F 58% 29.80 in 10.0 mi WNW 13.8 mph 19.6 mph N/A   Clear
12:36 PM 57.2 °F - 39.2 °F 51% 29.80 in 10.0 mi WNW 18.4 mph 21.9 mph N/A   Clear
12:55 PM 57.2 °F - 39.2 °F 51% 29.79 in 10.0 mi West 15.0 mph 21.9 mph N/A   Clear
1:16 PM 57.2 °F - 39.2 °F 51% 29.79 in 10.0 mi West 16.1 mph 21.9 mph N/A   Clear
1:35 PM 59.0 °F - 39.2 °F 48% 29.79 in 10.0 mi West 15.0 mph - N/A   Clear
1:56 PM 59.0 °F - 42.8 °F 55% 29.79 in 10.0 mi WNW 12.7 mph 19.6 mph N/A   Clear
2:16 PM 60.8 °F - 41.0 °F 48% 29.79 in 10.0 mi WNW 15.0 mph - N/A   Clear
2:36 PM 60.8 °F - 42.8 °F 52% 29.79 in 10.0 mi WNW 18.4 mph 23.0 mph N/A   Clear
2:56 PM 60.8 °F - 42.8 °F 52% 29.79 in 10.0 mi WNW 17.3 mph 21.9 mph N/A   Clear
3:16 PM 60.8 °F - 42.8 °F 52% 29.80 in 10.0 mi West 15.0 mph 25.3 mph N/A   Clear
3:36 PM 60.8 °F - 41.0 °F 48% 29.79 in 10.0 mi NW 17.3 mph 23.0 mph N/A   Clear
3:56 PM 62.6 °F - 42.8 °F 48% 29.79 in 10.0 mi NW 17.3 mph 24.2 mph N/A   Clear
4:16 PM 62.6 °F - 42.8 °F 48% 29.79 in 10.0 mi NW 16.1 mph - N/A   Clear
4:36 PM 60.8 °F - 42.8 °F 52% 29.79 in 10.0 mi NW 10.4 mph - N/A   Clear
4:56 PM 62.6 °F - 41.0 °F 45% 29.78 in 10.0 mi WNW 11.5 mph - N/A   Clear
5:16 PM 62.6 °F - 39.2 °F 42% 29.78 in 10.0 mi WNW 15.0 mph 20.7 mph N/A   Scattered Clouds
5:36 PM 62.6 °F - 37.4 °F 39% 29.79 in 10.0 mi West 9.2 mph 20.7 mph N/A   Scattered Clouds
5:56 PM 60.8 °F - 35.6 °F 39% 29.79 in 10.0 mi WNW 15.0 mph 21.9 mph N/A   Scattered Clouds
6:16 PM 62.6 °F - 35.6 °F 37% 29.79 in 10.0 mi WNW 15.0 mph - N/A   Clear
6:36 PM 60.8 °F - 37.4 °F 42% 29.80 in 10.0 mi NW 9.2 mph - N/A   Clear
6:56 PM 60.8 °F - 39.2 °F 45% 29.80 in 10.0 mi NW 9.2 mph - N/A   Clear
7:15 PM 59.0 °F - 37.4 °F 45% 29.81 in 10.0 mi NW 8.1 mph - N/A   Clear
7:36 PM 57.2 °F - 37.4 °F 48% 29.81 in 10.0 mi NNW 9.2 mph - N/A   Clear
7:56 PM 55.4 °F - 39.2 °F 54% 29.82 in 10.0 mi North 6.9 mph - N/A   Clear
8:16 PM 53.6 °F - 39.2 °F 58% 29.83 in 10.0 mi North 4.6 mph - N/A   Clear
8:35 PM 53.6 °F - 39.2 °F 58% 29.84 in 10.0 mi North 3.5 mph - N/A   Mostly Cloudy
8:56 PM 53.6 °F - 39.2 °F 58% 29.85 in 10.0 mi NNE 6.9 mph - N/A   Overcast
9:16 PM 50.0 °F - 39.2 °F 66% 29.86 in 10.0 mi NE 4.6 mph - N/A   Mostly Cloudy
9:36 PM 48.2 °F - 39.2 °F 71% 29.87 in 10.0 mi Calm Calm - N/A   Scattered Clouds
9:56 PM 46.4 °F 42.9 °F 39.2 °F 76% 29.88 in 10.0 mi NE 6.9 mph - N/A   Scattered Clouds
10:16 PM 46.4 °F 41.1 °F 37.4 °F 71% 29.88 in 10.0 mi NE 11.5 mph - N/A   Scattered Clouds
10:36 PM 46.4 °F 45.2 °F 37.4 °F 71% 29.90 in 10.0 mi NE 3.5 mph - N/A   Scattered Clouds
10:56 PM 46.4 °F 42.4 °F 35.6 °F 66% 29.90 in 10.0 mi NE 8.1 mph - N/A   Scattered Clouds
11:16 PM 44.6 °F 40.2 °F 35.6 °F 71% 29.92 in 10.0 mi NE 8.1 mph - N/A   Mostly Cloudy
11:35 PM 42.8 °F 38.6 °F 33.8 °F 70% 29.92 in 10.0 mi NE 6.9 mph - N/A   Scattered Clouds
11:56 PM 41.0 °F 38.0 °F 33.8 °F 76% 29.92 in 10.0 mi NE 4.6 mph - N/A   Clear